createdAt,value
2018-03-01T00:00:11.169Z,8.45
2018-03-01T00:02:38.886Z,7.97
2018-03-01T00:05:06.408Z,9.00
2018-03-01T00:07:34.778Z,9.38
2018-03-01T00:10:02.289Z,8.32
2018-03-01T00:12:29.851Z,8.07
2018-03-01T00:14:57.361Z,8.35
2018-03-01T00:17:25.363Z,7.70
2018-03-01T01:25:49.941Z,7.32
2018-03-01T01:28:18.219Z,8.25
2018-03-01T01:30:45.743Z,7.70
2018-03-01T01:33:13.247Z,8.68
2018-03-01T01:35:40.760Z,7.53
2018-03-01T01:38:08.264Z,8.15
2018-03-01T01:40:35.740Z,8.13
2018-03-01T01:43:03.395Z,8.68
2018-03-01T01:45:30.920Z,8.27
2018-03-01T01:47:59.188Z,6.78
2018-03-01T01:50:26.829Z,8.35
2018-03-01T01:52:54.626Z,7.55
2018-03-01T01:55:22.112Z,8.55
2018-03-01T01:57:49.614Z,6.60
2018-03-01T02:00:17.102Z,7.40
2018-03-01T02:02:44.593Z,7.37
2018-03-01T02:05:12.077Z,6.37
2018-03-01T02:07:39.672Z,8.00
2018-03-01T02:10:07.922Z,8.15
2018-03-01T02:12:35.568Z,7.10
2018-03-01T02:15:03.054Z,7.40
2018-03-01T02:17:30.541Z,7.03
2018-03-01T02:19:58.054Z,7.80
2018-03-01T02:22:26.289Z,6.70
2018-03-01T02:24:53.786Z,7.75
2018-03-01T02:27:21.297Z,7.07
2018-03-01T02:29:48.782Z,7.05
2018-03-01T02:32:16.314Z,8.00
2018-03-01T02:34:43.865Z,6.97
2018-03-01T02:37:11.368Z,7.97
2018-03-01T02:39:39.636Z,7.10
2018-03-01T02:42:07.126Z,7.30
2018-03-01T02:44:34.623Z,7.50
2018-03-01T02:47:02.129Z,7.32
2018-03-01T02:49:29.617Z,6.90
2018-03-01T02:51:57.199Z,6.90
2018-03-01T02:54:25.506Z,7.35
2018-03-01T02:56:53.733Z,7.72
2018-03-01T02:59:21.281Z,6.47
2018-03-01T03:01:48.859Z,6.75
2018-03-01T03:04:16.358Z,7.03
2018-03-01T03:06:43.839Z,7.35
2018-03-01T03:09:11.331Z,7.82
2018-03-01T03:11:39.712Z,7.37
2018-03-01T03:14:07.989Z,8.15
2018-03-01T03:16:35.483Z,7.65
2018-03-01T03:19:03.761Z,6.93
2018-03-01T03:21:32.005Z,7.72
2018-03-01T03:23:59.504Z,7.00
2018-03-01T03:26:28.553Z,7.45
2018-03-01T03:28:56.020Z,7.03
2018-03-01T03:31:23.505Z,8.10
2018-03-01T03:33:51.075Z,7.65
2018-03-01T03:36:18.617Z,7.20
2018-03-01T03:38:46.877Z,7.28
2018-03-01T03:41:14.465Z,7.57
2018-03-01T03:43:42.726Z,7.10
2018-03-01T03:46:10.414Z,7.47
2018-03-01T03:48:37.904Z,7.90
2018-03-01T03:51:06.160Z,6.93
2018-03-01T03:53:34.420Z,7.25
2018-03-01T03:56:01.922Z,6.70
2018-03-01T03:58:29.746Z,8.10
2018-03-01T04:00:57.287Z,6.70
2018-03-01T04:03:25.545Z,7.35
2018-03-01T04:05:53.182Z,7.53
2018-03-01T04:08:20.742Z,6.90
2018-03-01T04:10:48.217Z,7.15
2018-03-01T04:13:15.750Z,8.52
2018-03-01T04:15:43.228Z,7.10
2018-03-01T04:18:11.512Z,6.25
2018-03-01T04:20:39.007Z,6.70
2018-03-01T04:23:07.328Z,7.45
2018-03-01T04:25:34.807Z,5.85
2018-03-01T04:28:02.340Z,7.25
2018-03-01T04:30:29.841Z,7.12
2018-03-01T04:32:57.352Z,8.32
2018-03-01T04:35:24.935Z,7.18
2018-03-01T04:37:53.296Z,6.97
2018-03-01T04:42:55.654Z,8.60
2018-03-01T04:45:23.206Z,7.35
2018-03-01T04:47:51.493Z,7.12
2018-03-01T04:50:19.039Z,7.12
2018-03-01T04:52:46.649Z,8.40
2018-03-01T04:55:14.894Z,7.72
2018-03-01T04:57:42.514Z,7.65
2018-03-01T05:00:10.947Z,7.53
2018-03-01T05:02:38.445Z,6.60
2018-03-01T05:05:05.922Z,7.45
2018-03-01T05:07:33.532Z,8.20
2018-03-01T05:10:01.032Z,8.95
2018-03-01T05:12:28.543Z,8.68
2018-03-01T05:14:56.798Z,8.75
2018-03-01T05:17:24.308Z,9.52
2018-03-01T05:19:52.573Z,8.60
2018-03-01T05:22:20.096Z,8.00
2018-03-01T05:24:47.686Z,8.02
2018-03-01T05:27:15.224Z,8.57
2018-03-01T05:29:42.740Z,8.00
2018-03-01T05:32:10.324Z,8.40
2018-03-01T05:34:39.739Z,8.82
2018-03-01T05:37:07.232Z,8.43
2018-03-01T05:39:35.540Z,9.75
2018-03-01T05:42:03.138Z,9.20
2018-03-01T05:44:30.718Z,9.95
2018-03-01T05:46:58.354Z,9.23
2018-03-01T05:49:25.850Z,9.13
2018-03-01T05:51:53.502Z,10.23
2018-03-01T05:54:20.981Z,9.10
2018-03-01T05:56:48.478Z,9.07
2018-03-01T05:59:15.976Z,9.13
2018-03-01T06:01:44.974Z,9.15
2018-03-01T06:04:13.990Z,9.88
2018-03-01T06:06:41.474Z,9.38
2018-03-01T06:09:09.739Z,10.25
2018-03-01T06:11:37.342Z,8.88
2018-03-01T06:14:05.596Z,9.23
2018-03-01T06:16:33.114Z,10.60
2018-03-01T06:19:00.612Z,10.48
2018-03-01T06:21:28.249Z,10.05
2018-03-01T06:23:55.814Z,10.23
2018-03-01T06:26:24.072Z,9.65
2018-03-01T06:28:51.580Z,11.12
2018-03-01T06:31:19.064Z,10.40
2018-03-01T06:33:46.553Z,9.98
2018-03-01T06:36:14.054Z,10.75
2018-03-01T06:38:41.571Z,10.80
2018-03-01T06:41:09.055Z,9.80
2018-03-01T06:43:36.617Z,9.38
2018-03-01T06:46:04.161Z,10.20
2018-03-01T06:48:32.460Z,9.45
2018-03-01T06:50:59.941Z,16.40
2018-03-01T06:53:27.465Z,10.07
2018-03-01T06:55:54.948Z,9.95
2018-03-01T06:58:23.212Z,10.38
2018-03-01T07:00:51.401Z,10.70
2018-03-01T07:03:18.955Z,10.20
2018-03-01T07:05:47.268Z,10.60
2018-03-01T07:08:14.795Z,10.07
2018-03-01T07:10:42.773Z,10.18
2018-03-01T07:13:10.290Z,11.23
2018-03-01T07:15:37.792Z,11.82
2018-03-01T07:18:05.451Z,10.95
2018-03-01T07:20:33.749Z,12.43
2018-03-01T07:23:02.996Z,11.23
2018-03-01T07:25:30.490Z,10.80
2018-03-01T07:27:58.005Z,11.15
2018-03-01T07:30:26.267Z,11.88
2018-03-01T07:32:53.782Z,11.70
2018-03-01T07:35:21.306Z,11.50
2018-03-01T07:37:48.811Z,11.12
2018-03-01T07:40:17.068Z,10.52
2018-03-01T07:42:44.625Z,11.40
2018-03-01T07:45:12.138Z,11.80
2018-03-01T07:47:40.501Z,12.02
2018-03-01T07:50:08.794Z,10.65
2018-03-01T07:52:36.319Z,12.23
2018-03-01T07:55:03.836Z,10.98
2018-03-01T07:57:31.324Z,9.32
2018-03-01T07:59:59.584Z,11.77
2018-03-01T08:02:27.171Z,10.68
2018-03-01T08:04:55.859Z,11.80
2018-03-01T08:07:23.355Z,11.48
2018-03-01T08:09:50.929Z,11.70
2018-03-01T08:12:18.438Z,12.00
2018-03-01T08:14:46.703Z,10.75
2018-03-01T08:17:14.207Z,10.95
2018-03-01T08:19:41.732Z,11.88
2018-03-01T08:22:09.332Z,11.18
2018-03-01T08:24:36.836Z,11.05
2018-03-01T08:27:04.345Z,12.52
2018-03-01T08:29:32.104Z,10.75
2018-03-01T08:32:00.388Z,11.70
2018-03-01T08:34:28.667Z,10.98
2018-03-01T08:36:56.211Z,10.88
2018-03-01T08:39:23.728Z,11.93
2018-03-01T08:41:52.029Z,11.85
2018-03-01T08:44:19.588Z,11.02
2018-03-01T08:46:47.153Z,12.35
2018-03-01T08:49:15.424Z,10.20
2018-03-01T08:51:43.530Z,12.32
2018-03-01T08:54:11.836Z,11.50
2018-03-01T08:56:39.342Z,12.88
2018-03-01T08:59:06.848Z,11.27
2018-03-01T09:01:35.135Z,12.05
2018-03-01T09:04:03.398Z,11.75
2018-03-01T09:06:30.912Z,11.57
2018-03-01T09:08:58.467Z,10.82
2018-03-01T09:11:26.725Z,9.63
2018-03-01T09:13:54.310Z,11.32
2018-03-01T09:16:21.828Z,10.65
2018-03-01T09:18:49.318Z,11.88
2018-03-01T09:21:16.856Z,10.63
2018-03-01T09:23:44.372Z,11.07
2018-03-01T09:26:11.927Z,11.48
2018-03-01T09:28:39.428Z,11.07
2018-03-01T09:31:08.535Z,11.07
2018-03-01T09:33:36.817Z,11.52
2018-03-01T09:36:04.318Z,11.65
2018-03-01T09:38:32.599Z,10.60
2018-03-01T09:41:00.863Z,10.00
2018-03-01T09:43:28.368Z,10.20
2018-03-01T09:45:56.646Z,9.90
2018-03-01T09:48:24.958Z,9.85
2018-03-01T09:50:53.349Z,9.57
2018-03-01T09:53:20.838Z,10.57
2018-03-01T09:55:48.343Z,10.88
2018-03-01T09:58:15.929Z,11.02
2018-03-01T10:00:43.458Z,11.15
2018-03-01T10:03:10.975Z,9.93
2018-03-01T10:05:39.307Z,11.57
2018-03-01T10:08:06.965Z,9.95
2018-03-01T10:10:34.784Z,11.07
2018-03-01T10:13:02.304Z,10.75
2018-03-01T10:15:31.217Z,9.77
2018-03-01T10:17:58.746Z,10.52
2018-03-01T10:20:26.257Z,11.15
2018-03-01T10:22:53.751Z,10.32
2018-03-01T10:25:21.275Z,10.43
2018-03-01T10:27:49.587Z,11.00
2018-03-01T10:30:17.101Z,10.68
2018-03-01T10:32:44.597Z,10.27
2018-03-01T10:35:12.184Z,11.65
2018-03-01T10:37:40.434Z,11.95
2018-03-01T10:40:07.954Z,11.18
2018-03-01T10:42:35.702Z,11.30
2018-03-01T10:45:04.003Z,11.10
2018-03-01T10:47:31.529Z,11.97
2018-03-01T10:49:59.046Z,10.70
2018-03-01T10:52:27.318Z,11.07
2018-03-01T10:54:55.604Z,11.57
2018-03-01T10:57:23.185Z,11.60
2018-03-01T10:59:51.590Z,10.03
2018-03-01T11:02:19.960Z,11.40
2018-03-01T11:04:47.492Z,9.70
2018-03-01T11:07:15.099Z,9.80
2018-03-01T11:09:42.598Z,11.77
2018-03-01T11:12:10.102Z,11.03
2018-03-01T11:14:37.630Z,11.57
2018-03-01T11:17:05.895Z,10.37
2018-03-01T11:19:33.388Z,11.27
2018-03-01T11:22:01.680Z,12.03
2018-03-01T11:24:29.238Z,12.50
2018-03-01T11:26:57.520Z,11.40
2018-03-01T11:29:25.879Z,12.97
2018-03-01T11:31:53.377Z,12.40
2018-03-01T11:34:20.976Z,11.30
2018-03-01T11:36:49.262Z,12.07
2018-03-01T11:39:17.530Z,11.50
2018-03-01T11:41:46.647Z,11.97
2018-03-01T11:44:14.908Z,11.97
2018-03-01T11:46:42.501Z,11.30
2018-03-01T11:49:10.841Z,12.80
2018-03-01T11:51:38.367Z,11.57
2018-03-01T11:54:06.637Z,12.57
2018-03-01T11:56:34.338Z,10.60
2018-03-01T11:59:01.958Z,11.80
2018-03-01T12:01:29.479Z,10.50
2018-03-01T12:03:57.940Z,10.57
2018-03-01T12:06:25.560Z,10.70
2018-03-01T12:08:53.083Z,10.33
2018-03-01T12:11:20.595Z,10.23
2018-03-01T12:13:48.869Z,10.40
2018-03-01T12:16:17.254Z,11.10
2018-03-01T12:18:45.521Z,11.60
2018-03-01T12:21:14.554Z,10.03
2018-03-01T12:23:42.933Z,11.27
2018-03-01T12:26:10.460Z,12.77
2018-03-01T12:28:37.981Z,11.53
2018-03-01T12:31:06.361Z,11.30
2018-03-01T12:33:33.875Z,10.40
2018-03-01T12:36:01.357Z,10.77
2018-03-01T12:38:28.962Z,10.10
2018-03-01T12:40:56.463Z,10.77
2018-03-01T12:43:24.749Z,10.90
2018-03-01T12:45:53.043Z,10.43
2018-03-01T12:48:21.304Z,10.03
2018-03-01T12:50:49.565Z,12.20
2018-03-01T12:53:17.090Z,10.23
2018-03-01T12:55:45.354Z,11.10
2018-03-01T12:58:14.963Z,11.80
2018-03-01T13:00:42.528Z,11.17
2018-03-01T13:03:10.007Z,12.50
2018-03-01T13:05:37.579Z,12.20
2018-03-01T13:08:05.908Z,12.17
2018-03-01T13:10:48.281Z,11.37
2018-03-01T13:13:15.798Z,11.40
2018-03-01T13:15:43.309Z,12.10
2018-03-01T13:18:10.911Z,11.47
2018-03-01T13:20:39.165Z,10.43
2018-03-01T13:23:06.708Z,10.87
2018-03-01T13:25:34.234Z,11.40
2018-03-01T13:28:01.823Z,10.87
2018-03-01T13:30:31.037Z,12.07
2018-03-01T13:33:01.137Z,12.33
2018-03-01T13:35:29.416Z,11.60
2018-03-01T13:37:56.921Z,10.40
2018-03-01T13:40:25.192Z,11.90
2018-03-01T13:42:53.119Z,10.93
2018-03-01T13:45:20.634Z,11.50
2018-03-01T13:47:48.921Z,11.50
2018-03-01T13:50:16.439Z,10.80
2018-03-01T13:52:43.986Z,11.13
2018-03-01T13:55:12.265Z,11.57
2018-03-01T13:57:39.797Z,10.90
2018-03-01T14:00:07.291Z,11.97
2018-03-01T14:02:34.812Z,11.37
2018-03-01T14:05:02.362Z,10.80
2018-03-01T14:07:48.512Z,12.50
2018-03-01T14:10:16.085Z,12.10
2018-03-01T14:12:45.445Z,11.90
2018-03-01T14:15:13.867Z,12.17
2018-03-01T14:17:57.041Z,12.67
2018-03-01T14:20:42.373Z,11.17
2018-03-01T14:23:11.063Z,11.93
2018-03-01T14:25:39.326Z,11.80
2018-03-01T14:28:21.780Z,11.60
2018-03-01T14:30:50.305Z,10.77
2018-03-01T14:33:18.657Z,11.10
2018-03-01T14:35:46.208Z,11.87
2018-03-01T14:38:13.742Z,11.37
2018-03-01T14:40:41.319Z,12.07
2018-03-01T14:43:08.828Z,12.13
2018-03-01T14:45:36.343Z,11.70
2018-03-01T14:48:03.884Z,12.17
2018-03-01T14:50:32.272Z,11.80
2018-03-01T14:52:59.875Z,11.03
2018-03-01T14:55:27.359Z,10.67
2018-03-01T14:57:54.956Z,12.20
2018-03-01T15:00:22.487Z,11.70
2018-03-01T15:02:50.060Z,13.43
2018-03-01T15:05:17.598Z,12.10
2018-03-01T15:07:45.089Z,11.70
2018-03-01T15:10:13.362Z,12.33
2018-03-01T15:12:40.945Z,12.17
2018-03-01T15:15:09.075Z,12.30
2018-03-01T15:17:36.583Z,11.63
2018-03-01T15:20:04.869Z,12.67
2018-03-01T15:22:33.194Z,12.97
2018-03-01T15:25:00.868Z,11.80
2018-03-01T15:27:28.421Z,11.50
2018-03-01T15:29:56.674Z,11.10
2018-03-01T15:32:24.204Z,13.53
2018-03-01T15:34:51.720Z,11.07
2018-03-01T15:37:19.217Z,12.97
2018-03-01T15:39:46.935Z,12.67
2018-03-01T15:42:14.431Z,13.97
2018-03-01T15:44:42.059Z,12.20
2018-03-01T15:47:09.781Z,13.48
2018-03-01T15:49:37.298Z,13.60
2018-03-01T15:52:04.857Z,12.30
2018-03-01T15:54:32.531Z,13.68
2018-03-01T15:57:00.138Z,12.07
2018-03-01T15:59:27.694Z,12.18
2018-03-01T16:01:55.252Z,13.30
2018-03-01T16:04:22.779Z,13.25
2018-03-01T16:06:50.290Z,11.82
2018-03-01T16:09:17.876Z,12.77
2018-03-01T16:11:45.385Z,12.75
2018-03-01T16:14:13.017Z,12.52
2018-03-01T16:16:40.535Z,12.48
2018-03-01T16:19:08.066Z,11.30
2018-03-01T16:21:35.643Z,13.52
2018-03-01T16:24:03.210Z,14.93
2018-03-01T16:26:30.718Z,13.32
2018-03-01T16:28:58.316Z,12.57
2018-03-01T16:31:26.623Z,13.90
2018-03-01T16:33:54.183Z,14.05
2018-03-01T16:36:22.492Z,14.25
2018-03-01T16:38:50.028Z,12.70
2018-03-01T16:41:17.554Z,14.48
2018-03-01T16:43:45.126Z,14.20
2018-03-01T16:46:13.117Z,13.00
2018-03-01T16:48:41.627Z,13.38
2018-03-01T16:51:09.153Z,13.18
2018-03-01T16:53:36.676Z,14.57
2018-03-01T16:56:04.249Z,13.82
2018-03-01T16:58:31.873Z,13.57
2018-03-01T17:00:59.391Z,11.73
2018-03-01T17:03:27.136Z,13.70
2018-03-01T17:05:54.660Z,13.93
2018-03-01T17:08:22.974Z,13.27
2018-03-01T17:10:50.478Z,14.50
2018-03-01T17:13:17.999Z,14.60
2018-03-01T17:15:46.263Z,14.00
2018-03-01T17:18:14.010Z,12.05
2018-03-01T17:20:41.515Z,13.50
2018-03-01T17:23:09.826Z,14.93
2018-03-01T17:25:37.384Z,13.00
2018-03-01T17:28:05.734Z,12.82
2018-03-01T17:30:33.268Z,13.15
2018-03-01T17:33:00.808Z,13.65
2018-03-01T17:35:28.447Z,13.60
2018-03-01T17:37:56.019Z,13.55
2018-03-01T17:40:23.552Z,14.00
2018-03-01T17:42:51.066Z,12.45
2018-03-01T17:45:18.601Z,14.00
2018-03-01T17:47:46.168Z,13.55
2018-03-01T17:50:13.737Z,14.30
2018-03-01T17:52:41.309Z,14.38
2018-03-01T17:55:08.901Z,14.85
2018-03-01T17:57:36.419Z,14.30
2018-03-01T18:00:03.939Z,14.00
2018-03-01T18:02:31.648Z,15.38
2018-03-01T18:04:59.207Z,14.95
2018-03-01T18:07:26.758Z,15.27
2018-03-01T18:09:54.319Z,14.98
2018-03-01T18:12:21.894Z,15.43
2018-03-01T18:14:49.417Z,15.52
2018-03-01T18:17:16.938Z,14.87
2018-03-01T18:19:44.488Z,14.63
2018-03-01T18:22:12.788Z,14.50
2018-03-01T18:24:40.432Z,14.52
2018-03-01T18:27:08.722Z,15.30
2018-03-01T18:29:37.054Z,13.30
2018-03-01T18:32:04.595Z,15.77
2018-03-01T18:34:32.168Z,14.85
2018-03-01T18:36:59.658Z,14.90
2018-03-01T18:39:27.194Z,14.63
2018-03-01T18:41:55.531Z,15.30
2018-03-01T18:44:23.080Z,15.15
2018-03-01T18:46:50.745Z,15.38
2018-03-01T18:49:18.403Z,15.05
2018-03-01T18:51:46.959Z,14.18
2018-03-01T18:54:14.537Z,15.88
2018-03-01T18:56:42.102Z,16.45
2018-03-01T18:59:09.677Z,14.68
2018-03-01T19:01:37.292Z,16.30
2018-03-01T19:04:05.592Z,15.88
2018-03-01T19:06:34.034Z,16.00
2018-03-01T19:09:01.566Z,15.90
2018-03-01T19:11:29.910Z,14.70
2018-03-01T19:13:57.594Z,14.40
2018-03-01T19:16:25.153Z,13.20
2018-03-01T19:18:53.523Z,15.27
2018-03-01T19:21:21.088Z,14.20
2018-03-01T19:23:48.644Z,15.60
2018-03-01T19:26:16.161Z,15.05
2018-03-01T19:28:43.720Z,15.60
2018-03-01T19:31:11.374Z,15.82
2018-03-01T19:33:38.889Z,15.65
2018-03-01T19:36:06.668Z,14.90
2018-03-01T19:38:34.229Z,15.02
2018-03-01T19:41:01.800Z,16.00
2018-03-01T19:43:30.132Z,15.38
2018-03-01T19:45:58.112Z,14.10
2018-03-01T19:48:26.107Z,15.20
2018-03-01T19:50:53.688Z,14.32
2018-03-01T19:53:21.240Z,14.80
2018-03-01T19:55:48.913Z,15.98
2018-03-01T19:58:16.578Z,15.02
2018-03-01T20:00:44.261Z,14.57
2018-03-01T20:03:11.869Z,14.55
2018-03-01T20:05:39.427Z,15.80
2018-03-01T20:08:07.104Z,15.63
2018-03-01T20:10:34.877Z,14.13
2018-03-01T20:13:02.545Z,14.35
2018-03-01T20:15:30.071Z,15.68
2018-03-01T20:17:57.671Z,13.18
2018-03-01T20:20:25.179Z,14.77
2018-03-01T20:22:52.815Z,16.15
2018-03-01T20:25:20.970Z,15.82
2018-03-01T20:27:48.782Z,16.23
2018-03-01T20:30:17.506Z,14.18
2018-03-01T20:32:45.174Z,16.60
2018-03-01T20:35:12.961Z,15.98
2018-03-01T20:37:40.603Z,14.38
2018-03-01T20:40:09.424Z,15.95
2018-03-01T20:42:37.812Z,15.80
2018-03-01T20:45:05.356Z,14.98
2018-03-01T20:47:33.776Z,14.95
2018-03-01T20:50:01.465Z,14.55
2018-03-01T20:55:05.767Z,15.05
2018-03-01T20:57:34.216Z,17.55
2018-03-01T21:00:02.497Z,16.30
2018-03-01T21:02:32.205Z,16.73
2018-03-01T21:05:00.092Z,16.05
2018-03-01T21:07:27.754Z,16.27
2018-03-01T21:09:56.155Z,17.60
2018-03-01T21:12:23.831Z,15.52
2018-03-01T21:14:51.439Z,16.20
2018-03-01T21:17:19.001Z,17.35
2018-03-01T21:19:46.542Z,16.12
2018-03-01T21:22:14.154Z,16.58
2018-03-01T21:24:41.863Z,15.48
2018-03-01T21:27:10.244Z,17.37
2018-03-01T21:29:38.592Z,18.42
2018-03-01T21:32:06.297Z,15.98
2018-03-01T21:34:33.899Z,16.92
2018-03-01T21:37:02.230Z,16.50
2018-03-01T21:39:30.037Z,16.20
2018-03-01T21:41:57.773Z,16.52
2018-03-01T21:44:25.409Z,16.62
2018-03-01T21:47:05.578Z,17.12
2018-03-01T21:49:33.144Z,15.70
2018-03-01T21:52:01.463Z,16.55
2018-03-01T21:54:28.987Z,17.80
2018-03-01T21:56:56.522Z,17.15
2018-03-01T21:59:24.091Z,16.45
2018-03-01T22:01:51.787Z,18.17
2018-03-01T22:04:19.329Z,18.48
2018-03-01T22:06:46.888Z,17.37
2018-03-01T22:09:14.442Z,16.65
2018-03-01T22:11:42.039Z,17.08
2018-03-01T22:14:09.643Z,18.37
2018-03-01T22:16:37.212Z,17.33
2018-03-01T22:19:04.759Z,17.58
2018-03-01T22:21:32.369Z,16.92
2018-03-01T22:23:59.923Z,17.55
2018-03-01T22:26:27.446Z,17.30
2018-03-01T22:28:54.998Z,18.67
2018-03-01T22:31:22.605Z,18.45
2018-03-01T22:33:50.152Z,17.30
2018-03-01T22:36:18.492Z,18.45
2018-03-01T22:38:46.059Z,17.90
2018-03-01T22:41:13.579Z,17.75
2018-03-01T22:43:41.878Z,16.73
2018-03-01T22:46:10.141Z,17.23
2018-03-01T22:48:37.741Z,17.90
2018-03-01T22:51:06.019Z,16.90
2018-03-01T22:53:34.330Z,17.10
2018-03-01T22:56:01.960Z,17.35
2018-03-01T22:58:29.752Z,15.88
2018-03-01T23:00:57.390Z,16.33
2018-03-01T23:03:24.890Z,15.75
2018-03-01T23:05:52.405Z,17.30
2018-03-01T23:08:19.960Z,16.10
2018-03-01T23:10:47.496Z,16.50
2018-03-01T23:13:16.009Z,14.85
2018-03-01T23:15:44.289Z,16.35
2018-03-01T23:18:11.835Z,18.00
2018-03-01T23:20:39.390Z,15.98
2018-03-01T23:23:06.917Z,17.73
2018-03-01T23:25:35.211Z,17.40
2018-03-01T23:28:02.729Z,16.30
2018-03-01T23:30:30.214Z,16.20
2018-03-01T23:32:57.709Z,15.68
2018-03-01T23:35:26.295Z,15.38
2018-03-01T23:37:53.865Z,16.12
2018-03-01T23:40:21.571Z,15.55
2018-03-01T23:42:49.094Z,14.25
2018-03-01T23:45:16.588Z,14.60
2018-03-01T23:47:44.260Z,15.85
2018-03-01T23:50:11.786Z,14.93
2018-03-01T23:52:39.354Z,14.77
2018-03-01T23:55:06.879Z,14.00
2018-03-01T23:57:35.158Z,14.85
